sensor_id;sensor_type;location;lat;lon;timestamp;temperature;humidity
43561;DHT22;32305;46.410;17.394;2023-04-01T00:01:48;23.10;39.30
43561;DHT22;32305;46.410;17.394;2023-04-01T00:04:16;23.10;39.30
43561;DHT22;32305;46.410;17.394;2023-04-01T00:06:43;23.00;39.20
43561;DHT22;32305;46.410;17.394;2023-04-01T00:09:10;23.00;39.20
43561;DHT22;32305;46.410;17.394;2023-04-01T00:11:37;23.00;39.20
43561;DHT22;32305;46.410;17.394;2023-04-01T00:14:06;23.00;39.20
43561;DHT22;32305;46.410;17.394;2023-04-01T00:16:33;23.00;39.20
43561;DHT22;32305;46.410;17.394;2023-04-01T00:19:00;23.00;39.30
43561;DHT22;32305;46.410;17.394;2023-04-01T00:21:28;23.00;39.30
43561;DHT22;32305;46.410;17.394;2023-04-01T00:23:55;23.00;39.20
43561;DHT22;32305;46.410;17.394;2023-04-01T00:26:22;23.00;39.20
43561;DHT22;32305;46.410;17.394;2023-04-01T00:28:49;23.00;39.20
43561;DHT22;32305;46.410;17.394;2023-04-01T00:31:17;23.00;39.30
43561;DHT22;32305;46.410;17.394;2023-04-01T00:33:44;23.00;39.30
43561;DHT22;32305;46.410;17.394;2023-04-01T00:36:13;23.00;39.30
43561;DHT22;32305;46.410;17.394;2023-04-01T00:38:41;23.00;39.30
43561;DHT22;32305;46.410;17.394;2023-04-01T00:41:11;23.00;39.80
43561;DHT22;32305;46.410;17.394;2023-04-01T00:43:44;23.00;39.30
43561;DHT22;32305;46.410;17.394;2023-04-01T00:46:11;23.00;39.80
43561;DHT22;32305;46.410;17.394;2023-04-01T00:48:43;23.00;39.30
43561;DHT22;32305;46.410;17.394;2023-04-01T00:51:17;22.90;39.20
43561;DHT22;32305;46.410;17.394;2023-04-01T00:53:48;23.00;39.30
43561;DHT22;32305;46.410;17.394;2023-04-01T00:56:27;23.00;39.30
43561;DHT22;32305;46.410;17.394;2023-04-01T00:59:04;22.90;39.30
43561;DHT22;32305;46.410;17.394;2023-04-01T01:01:35;22.90;39.30
43561;DHT22;32305;46.410;17.394;2023-04-01T01:04:03;23.00;39.30
43561;DHT22;32305;46.410;17.394;2023-04-01T01:06:49;22.90;39.30
43561;DHT22;32305;46.410;17.394;2023-04-01T01:09:30;22.90;39.30
43561;DHT22;32305;46.410;17.394;2023-04-01T01:12:08;22.90;39.40
43561;DHT22;32305;46.410;17.394;2023-04-01T01:14:48;22.90;39.30
43561;DHT22;32305;46.410;17.394;2023-04-01T01:23:50;22.90;39.30
43561;DHT22;32305;46.410;17.394;2023-04-01T01:26:46;23.00;39.30
43561;DHT22;32305;46.410;17.394;2023-04-01T01:29:40;23.00;39.30
43561;DHT22;32305;46.410;17.394;2023-04-01T01:32:38;23.00;39.40
43561;DHT22;32305;46.410;17.394;2023-04-01T01:35:22;23.00;39.30
43561;DHT22;32305;46.410;17.394;2023-04-01T01:37:55;23.00;39.40
43561;DHT22;32305;46.410;17.394;2023-04-01T01:40:24;23.00;39.30
43561;DHT22;32305;46.410;17.394;2023-04-01T01:42:54;23.00;39.30
43561;DHT22;32305;46.410;17.394;2023-04-01T01:45:23;23.00;39.30
43561;DHT22;32305;46.410;17.394;2023-04-01T01:47:51;23.00;39.30
43561;DHT22;32305;46.410;17.394;2023-04-01T01:50:19;22.90;39.30
43561;DHT22;32305;46.410;17.394;2023-04-01T01:52:48;23.00;39.40
43561;DHT22;32305;46.410;17.394;2023-04-01T01:55:31;23.00;39.40
43561;DHT22;32305;46.410;17.394;2023-04-01T01:58:22;22.90;39.30
43561;DHT22;32305;46.410;17.394;2023-04-01T02:00:54;22.90;39.40
43561;DHT22;32305;46.410;17.394;2023-04-01T02:03:24;22.90;39.40
43561;DHT22;32305;46.410;17.394;2023-04-01T02:05:56;22.90;39.40
43561;DHT22;32305;46.410;17.394;2023-04-01T02:08:28;22.90;39.40
43561;DHT22;32305;46.410;17.394;2023-04-01T02:11:01;22.90;39.40
43561;DHT22;32305;46.410;17.394;2023-04-01T02:13:43;22.90;39.40
43561;DHT22;32305;46.410;17.394;2023-04-01T02:16:16;22.90;39.40
43561;DHT22;32305;46.410;17.394;2023-04-01T02:18:46;22.90;39.40
43561;DHT22;32305;46.410;17.394;2023-04-01T02:21:17;22.90;39.40
43561;DHT22;32305;46.410;17.394;2023-04-01T02:23:45;22.90;39.40
43561;DHT22;32305;46.410;17.394;2023-04-01T02:26:14;22.90;39.40
43561;DHT22;32305;46.410;17.394;2023-04-01T02:28:43;22.90;39.40
43561;DHT22;32305;46.410;17.394;2023-04-01T02:31:12;22.90;39.40
43561;DHT22;32305;46.410;17.394;2023-04-01T02:33:41;22.90;39.40
43561;DHT22;32305;46.410;17.394;2023-04-01T02:36:14;22.90;39.40
43561;DHT22;32305;46.410;17.394;2023-04-01T02:38:43;22.90;39.40
43561;DHT22;32305;46.410;17.394;2023-04-01T02:41:12;22.90;39.40
43561;DHT22;32305;46.410;17.394;2023-04-01T02:43:39;22.90;39.40
43561;DHT22;32305;46.410;17.394;2023-04-01T02:46:06;22.90;39.40
43561;DHT22;32305;46.410;17.394;2023-04-01T02:48:33;22.90;39.40
43561;DHT22;32305;46.410;17.394;2023-04-01T02:51:01;22.90;39.40
43561;DHT22;32305;46.410;17.394;2023-04-01T02:53:28;22.90;39.40
43561;DHT22;32305;46.410;17.394;2023-04-01T02:55:55;22.90;39.40
43561;DHT22;32305;46.410;17.394;2023-04-01T02:58:22;22.80;39.40
43561;DHT22;32305;46.410;17.394;2023-04-01T03:00:49;22.90;39.40
43561;DHT22;32305;46.410;17.394;2023-04-01T03:03:16;22.80;39.40
43561;DHT22;32305;46.410;17.394;2023-04-01T03:05:44;22.80;39.40
43561;DHT22;32305;46.410;17.394;2023-04-01T03:08:12;22.80;39.40
43561;DHT22;32305;46.410;17.394;2023-04-01T03:10:39;22.80;39.40
43561;DHT22;32305;46.410;17.394;2023-04-01T03:13:06;22.80;39.40
43561;DHT22;32305;46.410;17.394;2023-04-01T03:15:33;22.80;39.40
43561;DHT22;32305;46.410;17.394;2023-04-01T03:18:01;22.80;39.50
43561;DHT22;32305;46.410;17.394;2023-04-01T03:20:28;22.80;39.40
43561;DHT22;32305;46.410;17.394;2023-04-01T03:22:55;22.80;39.40
43561;DHT22;32305;46.410;17.394;2023-04-01T03:25:22;22.80;39.40
43561;DHT22;32305;46.410;17.394;2023-04-01T03:27:49;22.80;39.40
43561;DHT22;32305;46.410;17.394;2023-04-01T03:30:16;22.80;39.40
43561;DHT22;32305;46.410;17.394;2023-04-01T03:32:44;22.80;39.40
43561;DHT22;32305;46.410;17.394;2023-04-01T03:35:11;22.80;39.40
43561;DHT22;32305;46.410;17.394;2023-04-01T03:37:38;22.90;40.00
43561;DHT22;32305;46.410;17.394;2023-04-01T03:40:05;22.90;40.00
43561;DHT22;32305;46.410;17.394;2023-04-01T03:42:33;22.90;39.40
43561;DHT22;32305;46.410;17.394;2023-04-01T03:45:00;22.90;39.40
43561;DHT22;32305;46.410;17.394;2023-04-01T03:47:28;22.90;39.40
43561;DHT22;32305;46.410;17.394;2023-04-01T03:49:55;22.90;39.40
43561;DHT22;32305;46.410;17.394;2023-04-01T03:52:22;22.90;39.40
43561;DHT22;32305;46.410;17.394;2023-04-01T03:54:50;22.80;39.30
43561;DHT22;32305;46.410;17.394;2023-04-01T03:57:17;22.80;39.40
43561;DHT22;32305;46.410;17.394;2023-04-01T03:59:44;22.90;39.40
43561;DHT22;32305;46.410;17.394;2023-04-01T04:02:11;22.80;39.40
43561;DHT22;32305;46.410;17.394;2023-04-01T04:04:38;22.90;39.40
43561;DHT22;32305;46.410;17.394;2023-04-01T04:07:05;22.90;39.40
43561;DHT22;32305;46.410;17.394;2023-04-01T04:09:32;22.80;39.40
43561;DHT22;32305;46.410;17.394;2023-04-01T04:12:00;22.80;39.40
43561;DHT22;32305;46.410;17.394;2023-04-01T04:14:27;22.80;39.40
43561;DHT22;32305;46.410;17.394;2023-04-01T04:16:54;22.80;39.40
43561;DHT22;32305;46.410;17.394;2023-04-01T04:19:23;22.80;39.40
43561;DHT22;32305;46.410;17.394;2023-04-01T04:21:51;22.80;39.40
43561;DHT22;32305;46.410;17.394;2023-04-01T04:24:18;22.80;39.40
43561;DHT22;32305;46.410;17.394;2023-04-01T04:26:45;22.80;39.40
43561;DHT22;32305;46.410;17.394;2023-04-01T04:29:12;22.80;39.40
43561;DHT22;32305;46.410;17.394;2023-04-01T04:31:39;22.80;39.40
43561;DHT22;32305;46.410;17.394;2023-04-01T04:34:06;22.80;39.50
43561;DHT22;32305;46.410;17.394;2023-04-01T04:36:33;22.80;39.40
43561;DHT22;32305;46.410;17.394;2023-04-01T04:39:01;22.80;39.30
43561;DHT22;32305;46.410;17.394;2023-04-01T04:41:30;22.80;39.30
43561;DHT22;32305;46.410;17.394;2023-04-01T04:43:57;22.70;39.30
43561;DHT22;32305;46.410;17.394;2023-04-01T04:46:25;22.70;39.30
43561;DHT22;32305;46.410;17.394;2023-04-01T04:48:52;22.70;39.30
43561;DHT22;32305;46.410;17.394;2023-04-01T04:51:20;22.70;39.30
43561;DHT22;32305;46.410;17.394;2023-04-01T04:53:48;22.70;39.40
43561;DHT22;32305;46.410;17.394;2023-04-01T04:56:19;22.70;39.40
43561;DHT22;32305;46.410;17.394;2023-04-01T04:58:47;22.70;39.40
43561;DHT22;32305;46.410;17.394;2023-04-01T05:01:16;22.70;39.40
43561;DHT22;32305;46.410;17.394;2023-04-01T05:03:43;22.70;39.30
43561;DHT22;32305;46.410;17.394;2023-04-01T05:06:13;22.70;39.30
43561;DHT22;32305;46.410;17.394;2023-04-01T05:08:42;22.70;39.30
43561;DHT22;32305;46.410;17.394;2023-04-01T05:11:13;22.70;39.20
43561;DHT22;32305;46.410;17.394;2023-04-01T05:13:42;22.70;39.20
43561;DHT22;32305;46.410;17.394;2023-04-01T05:16:11;22.70;39.20
43561;DHT22;32305;46.410;17.394;2023-04-01T05:18:38;22.70;39.20
43561;DHT22;32305;46.410;17.394;2023-04-01T05:21:08;22.80;39.20
43561;DHT22;32305;46.410;17.394;2023-04-01T05:23:35;22.80;39.20
43561;DHT22;32305;46.410;17.394;2023-04-01T05:26:04;22.80;39.10
43561;DHT22;32305;46.410;17.394;2023-04-01T05:28:31;22.80;39.10
43561;DHT22;32305;46.410;17.394;2023-04-01T05:31:00;22.80;39.10
43561;DHT22;32305;46.410;17.394;2023-04-01T05:33:31;22.90;39.10
43561;DHT22;32305;46.410;17.394;2023-04-01T05:36:07;22.90;39.00
43561;DHT22;32305;46.410;17.394;2023-04-01T05:38:34;22.90;39.00
43561;DHT22;32305;46.410;17.394;2023-04-01T05:41:02;22.90;38.90
43561;DHT22;32305;46.410;17.394;2023-04-01T05:43:29;23.00;38.90
43561;DHT22;32305;46.410;17.394;2023-04-01T05:45:57;23.00;38.80
43561;DHT22;32305;46.410;17.394;2023-04-01T05:48:24;23.00;38.80
43561;DHT22;32305;46.410;17.394;2023-04-01T05:50:51;23.00;38.70
43561;DHT22;32305;46.410;17.394;2023-04-01T05:53:19;23.00;38.70
43561;DHT22;32305;46.410;17.394;2023-04-01T05:55:46;23.00;38.60
43561;DHT22;32305;46.410;17.394;2023-04-01T05:58:13;23.10;38.60
43561;DHT22;32305;46.410;17.394;2023-04-01T06:00:40;23.10;38.60
43561;DHT22;32305;46.410;17.394;2023-04-01T06:03:07;23.10;38.50
43561;DHT22;32305;46.410;17.394;2023-04-01T06:05:41;23.10;38.40
43561;DHT22;32305;46.410;17.394;2023-04-01T06:08:14;23.20;38.50
43561;DHT22;32305;46.410;17.394;2023-04-01T06:11:25;23.20;38.40
43561;DHT22;32305;46.410;17.394;2023-04-01T06:14:27;23.20;38.80
43561;DHT22;32305;46.410;17.394;2023-04-01T06:17:14;23.30;38.30
43561;DHT22;32305;46.410;17.394;2023-04-01T06:20:05;23.30;38.20
43561;DHT22;32305;46.410;17.394;2023-04-01T06:23:05;23.30;38.10
43561;DHT22;32305;46.410;17.394;2023-04-01T06:29:08;23.40;38.00
43561;DHT22;32305;46.410;17.394;2023-04-01T06:35:02;23.40;37.90
43561;DHT22;32305;46.410;17.394;2023-04-01T06:37:53;23.50;38.00
43561;DHT22;32305;46.410;17.394;2023-04-01T06:40:42;23.50;37.90
43561;DHT22;32305;46.410;17.394;2023-04-01T06:43:27;23.50;37.90
43561;DHT22;32305;46.410;17.394;2023-04-01T06:46:11;23.50;37.90
43561;DHT22;32305;46.410;17.394;2023-04-01T06:49:17;23.50;37.80
43561;DHT22;32305;46.410;17.394;2023-04-01T06:52:02;23.50;37.80
43561;DHT22;32305;46.410;17.394;2023-04-01T06:54:40;23.50;37.80
43561;DHT22;32305;46.410;17.394;2023-04-01T06:57:34;23.60;37.80
43561;DHT22;32305;46.410;17.394;2023-04-01T07:00:05;23.60;37.70
43561;DHT22;32305;46.410;17.394;2023-04-01T07:03:06;23.60;37.70
43561;DHT22;32305;46.410;17.394;2023-04-01T07:05:34;23.60;37.70
43561;DHT22;32305;46.410;17.394;2023-04-01T07:08:06;23.70;37.60
43561;DHT22;32305;46.410;17.394;2023-04-01T07:10:50;23.70;37.60
43561;DHT22;32305;46.410;17.394;2023-04-01T07:13:30;23.70;37.60
43561;DHT22;32305;46.410;17.394;2023-04-01T07:16:15;23.70;37.50
43561;DHT22;32305;46.410;17.394;2023-04-01T07:19:05;23.70;37.50
43561;DHT22;32305;46.410;17.394;2023-04-01T07:21:45;23.70;37.40
43561;DHT22;32305;46.410;17.394;2023-04-01T07:24:32;23.80;37.40
43561;DHT22;32305;46.410;17.394;2023-04-01T07:27:00;23.70;37.40
43561;DHT22;32305;46.410;17.394;2023-04-01T07:29:27;23.70;37.40
43561;DHT22;32305;46.410;17.394;2023-04-01T07:32:22;23.80;37.40
43561;DHT22;32305;46.410;17.394;2023-04-01T07:41:23;23.80;37.30
43561;DHT22;32305;46.410;17.394;2023-04-01T07:47:29;23.90;37.30
43561;DHT22;32305;46.410;17.394;2023-04-01T07:50:25;23.90;37.20
43561;DHT22;32305;46.410;17.394;2023-04-01T07:53:11;24.00;37.20
43561;DHT22;32305;46.410;17.394;2023-04-01T07:55:55;24.00;37.10
43561;DHT22;32305;46.410;17.394;2023-04-01T07:58:54;24.00;37.10
43561;DHT22;32305;46.410;17.394;2023-04-01T08:01:55;24.10;37.10
43561;DHT22;32305;46.410;17.394;2023-04-01T08:04:39;24.10;37.00
43561;DHT22;32305;46.410;17.394;2023-04-01T08:07:21;24.20;37.00
43561;DHT22;32305;46.410;17.394;2023-04-01T08:10:09;24.20;36.90
43561;DHT22;32305;46.410;17.394;2023-04-01T08:13:11;24.30;37.50
43561;DHT22;32305;46.410;17.394;2023-04-01T08:15:53;24.30;36.80
43561;DHT22;32305;46.410;17.394;2023-04-01T08:21:35;24.40;36.70
43561;DHT22;32305;46.410;17.394;2023-04-01T08:24:39;24.40;36.60
43561;DHT22;32305;46.410;17.394;2023-04-01T08:27:44;24.50;36.60
43561;DHT22;32305;46.410;17.394;2023-04-01T08:30:35;24.50;36.50
43561;DHT22;32305;46.410;17.394;2023-04-01T08:33:27;24.50;36.40
43561;DHT22;32305;46.410;17.394;2023-04-01T08:36:05;24.50;36.40
43561;DHT22;32305;46.410;17.394;2023-04-01T08:41:58;24.60;36.40
43561;DHT22;32305;46.410;17.394;2023-04-01T08:45:07;24.60;36.20
43561;DHT22;32305;46.410;17.394;2023-04-01T08:47:45;24.70;36.30
43561;DHT22;32305;46.410;17.394;2023-04-01T08:53:50;24.70;36.20
43561;DHT22;32305;46.410;17.394;2023-04-01T08:56:58;24.80;36.10
43561;DHT22;32305;46.410;17.394;2023-04-01T08:59:39;24.80;35.90
43561;DHT22;32305;46.410;17.394;2023-04-01T09:02:46;24.80;35.90
43561;DHT22;32305;46.410;17.394;2023-04-01T09:05:47;24.80;35.90
43561;DHT22;32305;46.410;17.394;2023-04-01T09:08:35;24.90;35.90
43561;DHT22;32305;46.410;17.394;2023-04-01T09:11:11;24.90;35.90
43561;DHT22;32305;46.410;17.394;2023-04-01T09:14:17;24.90;35.90
43561;DHT22;32305;46.410;17.394;2023-04-01T09:17:17;24.90;35.90
43561;DHT22;32305;46.410;17.394;2023-04-01T09:20:16;24.90;35.90
43561;DHT22;32305;46.410;17.394;2023-04-01T09:23:10;24.90;35.90
43561;DHT22;32305;46.410;17.394;2023-04-01T09:25:53;24.90;35.90
43561;DHT22;32305;46.410;17.394;2023-04-01T09:34:54;24.90;35.90
43561;DHT22;32305;46.410;17.394;2023-04-01T09:38:00;25.00;35.80
43561;DHT22;32305;46.410;17.394;2023-04-01T09:41:02;25.00;35.80
43561;DHT22;32305;46.410;17.394;2023-04-01T09:44:02;25.10;35.70
43561;DHT22;32305;46.410;17.394;2023-04-01T09:47:00;25.10;35.70
43561;DHT22;32305;46.410;17.394;2023-04-01T09:53:04;25.20;35.40
43561;DHT22;32305;46.410;17.394;2023-04-01T09:59:14;25.20;35.20
43561;DHT22;32305;46.410;17.394;2023-04-01T10:05:30;25.40;35.10
43561;DHT22;32305;46.410;17.394;2023-04-01T10:08:36;25.40;35.10
43561;DHT22;32305;46.410;17.394;2023-04-01T10:11:45;25.40;35.00
43561;DHT22;32305;46.410;17.394;2023-04-01T10:20:45;25.50;34.80
43561;DHT22;32305;46.410;17.394;2023-04-01T10:26:45;25.50;34.70
43561;DHT22;32305;46.410;17.394;2023-04-01T10:32:57;25.60;34.60
43561;DHT22;32305;46.410;17.394;2023-04-01T10:36:09;25.60;34.60
43561;DHT22;32305;46.410;17.394;2023-04-01T10:42:00;25.70;35.10
43561;DHT22;32305;46.410;17.394;2023-04-01T10:45:02;25.70;34.50
43561;DHT22;32305;46.410;17.394;2023-04-01T10:51:01;25.70;34.50
43561;DHT22;32305;46.410;17.394;2023-04-01T10:53:49;25.70;34.40
43561;DHT22;32305;46.410;17.394;2023-04-01T10:56:55;25.70;34.40
43561;DHT22;32305;46.410;17.394;2023-04-01T10:59:49;25.70;34.30
43561;DHT22;32305;46.410;17.394;2023-04-01T11:02:54;25.70;34.20
43561;DHT22;32305;46.410;17.394;2023-04-01T11:05:58;25.70;34.10
43561;DHT22;32305;46.410;17.394;2023-04-01T11:08:54;25.70;34.10
43561;DHT22;32305;46.410;17.394;2023-04-01T11:11:55;25.80;34.10
43561;DHT22;32305;46.410;17.394;2023-04-01T11:21:04;25.80;33.90
43561;DHT22;32305;46.410;17.394;2023-04-01T11:23:54;25.90;33.90
43561;DHT22;32305;46.410;17.394;2023-04-01T11:27:10;25.90;33.90
43561;DHT22;32305;46.410;17.394;2023-04-01T11:30:02;25.90;33.90
43561;DHT22;32305;46.410;17.394;2023-04-01T11:33:04;25.90;33.80
43561;DHT22;32305;46.410;17.394;2023-04-01T11:38:53;25.90;33.80
43561;DHT22;32305;46.410;17.394;2023-04-01T11:41:55;25.90;33.80
43561;DHT22;32305;46.410;17.394;2023-04-01T11:44:28;25.90;33.80
43561;DHT22;32305;46.410;17.394;2023-04-01T11:47:23;25.90;34.30
43561;DHT22;32305;46.410;17.394;2023-04-01T11:50:12;25.90;33.70
43561;DHT22;32305;46.410;17.394;2023-04-01T11:53:12;25.90;33.80
43561;DHT22;32305;46.410;17.394;2023-04-01T11:56:09;25.90;33.80
43561;DHT22;32305;46.410;17.394;2023-04-01T11:59:02;25.90;34.30
43561;DHT22;32305;46.410;17.394;2023-04-01T12:01:59;26.00;33.70
43561;DHT22;32305;46.410;17.394;2023-04-01T12:04:58;26.00;33.70
43561;DHT22;32305;46.410;17.394;2023-04-01T12:07:57;26.00;33.70
43561;DHT22;32305;46.410;17.394;2023-04-01T12:10:48;26.00;33.60
43561;DHT22;32305;46.410;17.394;2023-04-01T12:13:39;26.00;33.70
43561;DHT22;32305;46.410;17.394;2023-04-01T12:16:43;25.90;33.60
43561;DHT22;32305;46.410;17.394;2023-04-01T12:19:48;25.90;33.60
43561;DHT22;32305;46.410;17.394;2023-04-01T12:22:43;25.90;33.60
43561;DHT22;32305;46.410;17.394;2023-04-01T12:28:41;26.00;33.60
43561;DHT22;32305;46.410;17.394;2023-04-01T12:31:33;26.00;33.50
43561;DHT22;32305;46.410;17.394;2023-04-01T12:34:36;26.00;33.40
43561;DHT22;32305;46.410;17.394;2023-04-01T12:37:31;26.00;33.40
43561;DHT22;32305;46.410;17.394;2023-04-01T12:40:31;26.00;33.30
43561;DHT22;32305;46.410;17.394;2023-04-01T12:43:34;26.00;33.40
43561;DHT22;32305;46.410;17.394;2023-04-01T12:55:27;25.90;33.30
43561;DHT22;32305;46.410;17.394;2023-04-01T13:01:27;25.90;33.20
43561;DHT22;32305;46.410;17.394;2023-04-01T13:10:50;25.90;33.10
43561;DHT22;32305;46.410;17.394;2023-04-01T13:13:58;25.90;33.10
43561;DHT22;32305;46.410;17.394;2023-04-01T13:16:39;25.80;33.10
43561;DHT22;32305;46.410;17.394;2023-04-01T13:19:21;25.80;33.10
43561;DHT22;32305;46.410;17.394;2023-04-01T13:22:03;25.70;33.10
43561;DHT22;32305;46.410;17.394;2023-04-01T13:24:41;25.70;33.20
43561;DHT22;32305;46.410;17.394;2023-04-01T13:27:25;25.70;33.30
43561;DHT22;32305;46.410;17.394;2023-04-01T13:33:12;25.60;33.50
43561;DHT22;32305;46.410;17.394;2023-04-01T13:39:02;25.60;33.60
43561;DHT22;32305;46.410;17.394;2023-04-01T13:41:50;25.50;33.40
43561;DHT22;32305;46.410;17.394;2023-04-01T13:44:56;25.60;33.40
43561;DHT22;32305;46.410;17.394;2023-04-01T13:47:50;25.60;33.40
43561;DHT22;32305;46.410;17.394;2023-04-01T13:53:39;25.60;33.80
43561;DHT22;32305;46.410;17.394;2023-04-01T13:56:41;25.60;33.20
43561;DHT22;32305;46.410;17.394;2023-04-01T14:02:51;25.60;33.00
43561;DHT22;32305;46.410;17.394;2023-04-01T14:05:44;25.60;33.10
43561;DHT22;32305;46.410;17.394;2023-04-01T14:08:26;25.60;33.30
43561;DHT22;32305;46.410;17.394;2023-04-01T14:11:25;25.50;33.40
43561;DHT22;32305;46.410;17.394;2023-04-01T14:17:43;25.50;33.70
43561;DHT22;32305;46.410;17.394;2023-04-01T14:20:22;25.40;33.70
43561;DHT22;32305;46.410;17.394;2023-04-01T14:23:29;25.40;33.80
43561;DHT22;32305;46.410;17.394;2023-04-01T14:26:22;25.40;33.90
43561;DHT22;32305;46.410;17.394;2023-04-01T14:32:34;25.40;34.10
43561;DHT22;32305;46.410;17.394;2023-04-01T14:35:24;25.30;34.10
43561;DHT22;32305;46.410;17.394;2023-04-01T14:42:16;25.20;34.30
43561;DHT22;32305;46.410;17.394;2023-04-01T14:47:34;25.10;34.40
43561;DHT22;32305;46.410;17.394;2023-04-01T14:50:22;25.10;34.50
43561;DHT22;32305;46.410;17.394;2023-04-01T14:53:11;25.10;34.50
43561;DHT22;32305;46.410;17.394;2023-04-01T14:56:00;25.10;34.60
43561;DHT22;32305;46.410;17.394;2023-04-01T14:58:45;25.10;34.60
43561;DHT22;32305;46.410;17.394;2023-04-01T15:01:38;25.10;34.70
43561;DHT22;32305;46.410;17.394;2023-04-01T15:04:44;25.10;34.70
43561;DHT22;32305;46.410;17.394;2023-04-01T15:10:49;25.10;34.90
43561;DHT22;32305;46.410;17.394;2023-04-01T15:13:36;25.00;34.80
43561;DHT22;32305;46.410;17.394;2023-04-01T15:16:34;25.00;34.90
43561;DHT22;32305;46.410;17.394;2023-04-01T15:22:26;25.00;35.00
43561;DHT22;32305;46.410;17.394;2023-04-01T15:25:20;25.00;35.10
43561;DHT22;32305;46.410;17.394;2023-04-01T15:28:07;24.90;35.00
43561;DHT22;32305;46.410;17.394;2023-04-01T15:30:56;24.90;35.10
43561;DHT22;32305;46.410;17.394;2023-04-01T15:39:40;24.90;35.20
43561;DHT22;32305;46.410;17.394;2023-04-01T15:45:26;24.90;35.30
43561;DHT22;32305;46.410;17.394;2023-04-01T15:51:12;24.80;35.40
43561;DHT22;32305;46.410;17.394;2023-04-01T15:54:02;24.80;35.40
43561;DHT22;32305;46.410;17.394;2023-04-01T16:00:00;24.80;35.60
43561;DHT22;32305;46.410;17.394;2023-04-01T16:02:35;24.80;35.60
43561;DHT22;32305;46.410;17.394;2023-04-01T16:05:29;24.80;35.60
43561;DHT22;32305;46.410;17.394;2023-04-01T16:08:23;24.80;35.60
43561;DHT22;32305;46.410;17.394;2023-04-01T16:11:15;24.80;35.60
43561;DHT22;32305;46.410;17.394;2023-04-01T16:17:05;24.80;35.70
43561;DHT22;32305;46.410;17.394;2023-04-01T16:19:53;24.80;35.60
43561;DHT22;32305;46.410;17.394;2023-04-01T16:22:34;24.80;35.60
43561;DHT22;32305;46.410;17.394;2023-04-01T16:28:09;24.80;35.70
43561;DHT22;32305;46.410;17.394;2023-04-01T16:30:50;24.80;35.70
43561;DHT22;32305;46.410;17.394;2023-04-01T16:33:55;24.80;35.80
43561;DHT22;32305;46.410;17.394;2023-04-01T16:36:42;24.70;35.80
43561;DHT22;32305;46.410;17.394;2023-04-01T16:42:51;24.70;35.80
43561;DHT22;32305;46.410;17.394;2023-04-01T16:45:37;24.60;35.90
43561;DHT22;32305;46.410;17.394;2023-04-01T16:48:14;24.60;36.00
43561;DHT22;32305;46.410;17.394;2023-04-01T16:50:59;24.60;36.10
43561;DHT22;32305;46.410;17.394;2023-04-01T16:53:41;24.50;36.10
43561;DHT22;32305;46.410;17.394;2023-04-01T16:56:36;24.50;36.20
43561;DHT22;32305;46.410;17.394;2023-04-01T16:59:28;24.50;36.30
43561;DHT22;32305;46.410;17.394;2023-04-01T17:02:10;24.40;36.30
43561;DHT22;32305;46.410;17.394;2023-04-01T17:05:08;24.40;36.40
43561;DHT22;32305;46.410;17.394;2023-04-01T17:08:05;24.30;36.40
43561;DHT22;32305;46.410;17.394;2023-04-01T17:11:16;24.30;36.50
43561;DHT22;32305;46.410;17.394;2023-04-01T17:13:50;24.30;36.60
43561;DHT22;32305;46.410;17.394;2023-04-01T17:16:51;24.20;36.60
43561;DHT22;32305;46.410;17.394;2023-04-01T17:19:45;24.20;36.70
43561;DHT22;32305;46.410;17.394;2023-04-01T17:22:25;24.10;36.70
43561;DHT22;32305;46.410;17.394;2023-04-01T17:28:09;24.10;36.90
43561;DHT22;32305;46.410;17.394;2023-04-01T17:30:46;24.00;36.90
43561;DHT22;32305;46.410;17.394;2023-04-01T17:33:50;24.00;37.00
43561;DHT22;32305;46.410;17.394;2023-04-01T17:36:45;23.90;37.00
43561;DHT22;32305;46.410;17.394;2023-04-01T17:42:48;23.90;37.20
43561;DHT22;32305;46.410;17.394;2023-04-01T17:45:49;23.80;37.30
43561;DHT22;32305;46.410;17.394;2023-04-01T17:51:42;23.80;37.40
43561;DHT22;32305;46.410;17.394;2023-04-01T17:54:41;23.70;37.30
43561;DHT22;32305;46.410;17.394;2023-04-01T17:57:44;23.70;37.40
43561;DHT22;32305;46.410;17.394;2023-04-01T18:00:17;23.70;37.50
43561;DHT22;32305;46.410;17.394;2023-04-01T18:09:00;23.60;37.60
43561;DHT22;32305;46.410;17.394;2023-04-01T18:11:48;23.60;37.60
43561;DHT22;32305;46.410;17.394;2023-04-01T18:14:58;23.60;37.60
43561;DHT22;32305;46.410;17.394;2023-04-01T18:17:50;23.60;37.70
43561;DHT22;32305;46.410;17.394;2023-04-01T18:20:33;23.60;37.70
43561;DHT22;32305;46.410;17.394;2023-04-01T18:23:35;23.60;37.80
43561;DHT22;32305;46.410;17.394;2023-04-01T18:26:11;23.60;37.80
43561;DHT22;32305;46.410;17.394;2023-04-01T18:28:59;23.50;37.70
43561;DHT22;32305;46.410;17.394;2023-04-01T18:31:35;23.50;37.80
43561;DHT22;32305;46.410;17.394;2023-04-01T18:34:49;23.50;37.80
43561;DHT22;32305;46.410;17.394;2023-04-01T18:37:28;23.50;37.80
43561;DHT22;32305;46.410;17.394;2023-04-01T18:43:34;23.50;37.90
43561;DHT22;32305;46.410;17.394;2023-04-01T18:46:30;23.40;37.90
43561;DHT22;32305;46.410;17.394;2023-04-01T18:49:29;23.40;37.90
43561;DHT22;32305;46.410;17.394;2023-04-01T18:51:57;23.40;37.90
43561;DHT22;32305;46.410;17.394;2023-04-01T18:54:31;23.40;38.00
43561;DHT22;32305;46.410;17.394;2023-04-01T18:57:12;23.40;38.00
43561;DHT22;32305;46.410;17.394;2023-04-01T18:59:45;23.40;38.00
43561;DHT22;32305;46.410;17.394;2023-04-01T19:02:30;23.40;38.00
43561;DHT22;32305;46.410;17.394;2023-04-01T19:05:17;23.30;38.00
43561;DHT22;32305;46.410;17.394;2023-04-01T19:07:52;23.30;38.10
43561;DHT22;32305;46.410;17.394;2023-04-01T19:10:46;23.30;38.10
43561;DHT22;32305;46.410;17.394;2023-04-01T19:13:35;23.30;38.10
43561;DHT22;32305;46.410;17.394;2023-04-01T19:16:31;23.30;38.20
43561;DHT22;32305;46.410;17.394;2023-04-01T19:19:17;23.30;38.20
43561;DHT22;32305;46.410;17.394;2023-04-01T19:21:58;23.30;38.20
43561;DHT22;32305;46.410;17.394;2023-04-01T19:27:42;23.20;38.20
43561;DHT22;32305;46.410;17.394;2023-04-01T19:30:51;23.20;38.20
43561;DHT22;32305;46.410;17.394;2023-04-01T19:36:45;23.20;38.30
43561;DHT22;32305;46.410;17.394;2023-04-01T19:39:38;23.20;38.90
43561;DHT22;32305;46.410;17.394;2023-04-01T19:42:32;23.10;38.30
43561;DHT22;32305;46.410;17.394;2023-04-01T19:45:38;23.20;38.40
43561;DHT22;32305;46.410;17.394;2023-04-01T19:48:33;23.10;38.30
43561;DHT22;32305;46.410;17.394;2023-04-01T19:51:13;23.10;38.40